sensor_id;sensor_type;location;lat;lon;timestamp;temperature;humidity
18880;DHT22;9572;52.378;13.404;2023-07-31T00:01:08;16.30;99.90
18880;DHT22;9572;52.378;13.404;2023-07-31T00:03:35;16.30;99.90
18880;DHT22;9572;52.378;13.404;2023-07-31T00:06:04;16.30;99.90
18880;DHT22;9572;52.378;13.404;2023-07-31T00:08:31;16.20;99.90
18880;DHT22;9572;52.378;13.404;2023-07-31T00:10:59;16.30;99.90
18880;DHT22;9572;52.378;13.404;2023-07-31T00:13:28;16.20;99.90
18880;DHT22;9572;52.378;13.404;2023-07-31T00:15:56;16.20;99.90
18880;DHT22;9572;52.378;13.404;2023-07-31T00:18:23;16.20;99.90
18880;DHT22;9572;52.378;13.404;2023-07-31T00:20:50;16.10;99.90
18880;DHT22;9572;52.378;13.404;2023-07-31T00:23:19;16.10;99.90
18880;DHT22;9572;52.378;13.404;2023-07-31T00:25:48;16.10;99.90
18880;DHT22;9572;52.378;13.404;2023-07-31T00:28:16;16.10;99.90
18880;DHT22;9572;52.378;13.404;2023-07-31T00:30:43;16.10;99.90
18880;DHT22;9572;52.378;13.404;2023-07-31T00:33:10;16.10;99.90
18880;DHT22;9572;52.378;13.404;2023-07-31T00:35:37;16.10;99.90
18880;DHT22;9572;52.378;13.404;2023-07-31T00:38:05;16.10;99.90
18880;DHT22;9572;52.378;13.404;2023-07-31T00:40:36;16.10;99.90
18880;DHT22;9572;52.378;13.404;2023-07-31T00:43:03;16.10;99.90
18880;DHT22;9572;52.378;13.404;2023-07-31T00:45:32;16.10;99.90
18880;DHT22;9572;52.378;13.404;2023-07-31T00:48:01;16.10;99.90
18880;DHT22;9572;52.378;13.404;2023-07-31T00:50:29;16.10;99.90
18880;DHT22;9572;52.378;13.404;2023-07-31T00:52:56;16.10;99.90
18880;DHT22;9572;52.378;13.404;2023-07-31T00:55:23;16.10;99.90
18880;DHT22;9572;52.378;13.404;2023-07-31T00:57:53;16.20;99.90
18880;DHT22;9572;52.378;13.404;2023-07-31T01:00:21;16.30;99.90
18880;DHT22;9572;52.378;13.404;2023-07-31T01:02:49;16.20;99.90
18880;DHT22;9572;52.378;13.404;2023-07-31T01:05:25;16.10;99.90
18880;DHT22;9572;52.378;13.404;2023-07-31T01:08:01;16.10;99.90
18880;DHT22;9572;52.378;13.404;2023-07-31T01:10:34;16.00;99.90
18880;DHT22;9572;52.378;13.404;2023-07-31T01:13:06;16.00;99.90
18880;DHT22;9572;52.378;13.404;2023-07-31T01:15:33;16.00;99.90
18880;DHT22;9572;52.378;13.404;2023-07-31T01:18:00;16.00;99.90
18880;DHT22;9572;52.378;13.404;2023-07-31T01:20:30;16.00;99.90
18880;DHT22;9572;52.378;13.404;2023-07-31T01:26:05;16.00;99.90
18880;DHT22;9572;52.378;13.404;2023-07-31T01:28:43;15.90;99.90
18880;DHT22;9572;52.378;13.404;2023-07-31T01:31:14;15.90;99.90
18880;DHT22;9572;52.378;13.404;2023-07-31T01:33:42;15.80;99.90
18880;DHT22;9572;52.378;13.404;2023-07-31T01:36:10;15.80;99.90
18880;DHT22;9572;52.378;13.404;2023-07-31T01:38:38;15.90;99.90
18880;DHT22;9572;52.378;13.404;2023-07-31T01:41:07;15.90;99.90
18880;DHT22;9572;52.378;13.404;2023-07-31T01:43:34;15.90;99.90
18880;DHT22;9572;52.378;13.404;2023-07-31T01:46:02;15.90;99.90
18880;DHT22;9572;52.378;13.404;2023-07-31T01:48:29;16.00;99.90
18880;DHT22;9572;52.378;13.404;2023-07-31T01:51:01;15.90;99.90
18880;DHT22;9572;52.378;13.404;2023-07-31T01:53:28;16.00;99.90
18880;DHT22;9572;52.378;13.404;2023-07-31T01:55:58;16.00;99.90
18880;DHT22;9572;52.378;13.404;2023-07-31T01:58:28;16.00;99.90
18880;DHT22;9572;52.378;13.404;2023-07-31T02:00:55;15.90;99.90
18880;DHT22;9572;52.378;13.404;2023-07-31T02:03:22;16.00;99.90
18880;DHT22;9572;52.378;13.404;2023-07-31T02:05:50;15.90;99.90
18880;DHT22;9572;52.378;13.404;2023-07-31T02:08:17;15.90;99.90
18880;DHT22;9572;52.378;13.404;2023-07-31T02:10:44;15.90;99.90
18880;DHT22;9572;52.378;13.404;2023-07-31T02:13:11;15.90;99.90
18880;DHT22;9572;52.378;13.404;2023-07-31T02:15:39;15.90;99.90
18880;DHT22;9572;52.378;13.404;2023-07-31T02:18:06;15.90;99.90
18880;DHT22;9572;52.378;13.404;2023-07-31T02:20:34;15.90;99.90
18880;DHT22;9572;52.378;13.404;2023-07-31T02:23:02;15.90;99.90
18880;DHT22;9572;52.378;13.404;2023-07-31T02:25:29;15.80;99.90
18880;DHT22;9572;52.378;13.404;2023-07-31T02:27:56;15.80;99.90
18880;DHT22;9572;52.378;13.404;2023-07-31T02:30:23;15.80;99.90
18880;DHT22;9572;52.378;13.404;2023-07-31T02:32:51;15.80;99.90
18880;DHT22;9572;52.378;13.404;2023-07-31T02:35:18;15.80;99.90
18880;DHT22;9572;52.378;13.404;2023-07-31T02:37:45;15.80;99.90
18880;DHT22;9572;52.378;13.404;2023-07-31T02:40:13;15.80;99.90
18880;DHT22;9572;52.378;13.404;2023-07-31T02:42:40;15.80;99.90
18880;DHT22;9572;52.378;13.404;2023-07-31T02:45:08;15.90;99.90
18880;DHT22;9572;52.378;13.404;2023-07-31T02:47:35;15.90;99.90
18880;DHT22;9572;52.378;13.404;2023-07-31T02:50:03;15.90;99.90
18880;DHT22;9572;52.378;13.404;2023-07-31T02:52:31;15.90;99.90
18880;DHT22;9572;52.378;13.404;2023-07-31T02:54:57;15.90;99.90
18880;DHT22;9572;52.378;13.404;2023-07-31T02:57:24;15.90;99.90
18880;DHT22;9572;52.378;13.404;2023-07-31T02:59:51;15.90;99.90
18880;DHT22;9572;52.378;13.404;2023-07-31T03:02:18;15.90;99.90
18880;DHT22;9572;52.378;13.404;2023-07-31T03:04:45;15.90;99.90
18880;DHT22;9572;52.378;13.404;2023-07-31T03:07:13;16.00;99.90
18880;DHT22;9572;52.378;13.404;2023-07-31T03:09:40;15.90;99.90
18880;DHT22;9572;52.378;13.404;2023-07-31T03:12:08;16.00;99.90
18880;DHT22;9572;52.378;13.404;2023-07-31T03:14:35;15.90;99.90
18880;DHT22;9572;52.378;13.404;2023-07-31T03:17:02;15.90;99.90
18880;DHT22;9572;52.378;13.404;2023-07-31T03:19:31;15.90;99.90
18880;DHT22;9572;52.378;13.404;2023-07-31T03:21:58;15.90;99.90
18880;DHT22;9572;52.378;13.404;2023-07-31T03:24:28;15.90;99.90
18880;DHT22;9572;52.378;13.404;2023-07-31T03:26:55;15.90;99.90
18880;DHT22;9572;52.378;13.404;2023-07-31T03:29:22;16.00;99.90
18880;DHT22;9572;52.378;13.404;2023-07-31T03:31:49;15.90;99.90
18880;DHT22;9572;52.378;13.404;2023-07-31T03:34:16;15.90;99.90
18880;DHT22;9572;52.378;13.404;2023-07-31T03:36:43;15.90;99.90
18880;DHT22;9572;52.378;13.404;2023-07-31T03:39:11;15.90;99.90
18880;DHT22;9572;52.378;13.404;2023-07-31T03:41:39;15.90;99.90
18880;DHT22;9572;52.378;13.404;2023-07-31T03:44:06;16.00;99.90
18880;DHT22;9572;52.378;13.404;2023-07-31T03:46:33;16.00;99.90
18880;DHT22;9572;52.378;13.404;2023-07-31T03:49:01;16.00;99.90
18880;DHT22;9572;52.378;13.404;2023-07-31T03:51:28;16.00;99.90
18880;DHT22;9572;52.378;13.404;2023-07-31T03:53:57;15.90;99.90
18880;DHT22;9572;52.378;13.404;2023-07-31T03:56:23;15.90;99.90
18880;DHT22;9572;52.378;13.404;2023-07-31T03:58:52;16.00;99.90
18880;DHT22;9572;52.378;13.404;2023-07-31T04:01:19;16.00;99.90
18880;DHT22;9572;52.378;13.404;2023-07-31T04:03:46;16.00;99.90
18880;DHT22;9572;52.378;13.404;2023-07-31T04:06:13;16.00;99.90
18880;DHT22;9572;52.378;13.404;2023-07-31T04:08:43;16.00;99.90
18880;DHT22;9572;52.378;13.404;2023-07-31T04:11:10;16.10;99.90
18880;DHT22;9572;52.378;13.404;2023-07-31T04:13:37;16.10;99.90
18880;DHT22;9572;52.378;13.404;2023-07-31T04:16:05;16.10;99.90
18880;DHT22;9572;52.378;13.404;2023-07-31T04:18:32;16.10;99.90
18880;DHT22;9572;52.378;13.404;2023-07-31T04:20:59;16.10;99.90
18880;DHT22;9572;52.378;13.404;2023-07-31T04:23:27;16.10;99.90
18880;DHT22;9572;52.378;13.404;2023-07-31T04:25:53;16.10;99.90
18880;DHT22;9572;52.378;13.404;2023-07-31T04:28:20;16.10;99.90
18880;DHT22;9572;52.378;13.404;2023-07-31T04:30:47;16.10;99.90
18880;DHT22;9572;52.378;13.404;2023-07-31T04:33:16;16.10;99.90
18880;DHT22;9572;52.378;13.404;2023-07-31T04:35:49;16.10;99.90
18880;DHT22;9572;52.378;13.404;2023-07-31T04:38:18;16.20;99.90
18880;DHT22;9572;52.378;13.404;2023-07-31T04:40:45;16.30;99.90
18880;DHT22;9572;52.378;13.404;2023-07-31T04:43:12;16.30;99.90
18880;DHT22;9572;52.378;13.404;2023-07-31T04:45:38;16.30;99.90
18880;DHT22;9572;52.378;13.404;2023-07-31T04:48:05;16.30;99.90
18880;DHT22;9572;52.378;13.404;2023-07-31T04:50:34;16.30;99.90
18880;DHT22;9572;52.378;13.404;2023-07-31T04:53:01;16.30;99.90
18880;DHT22;9572;52.378;13.404;2023-07-31T04:55:28;16.30;99.90
18880;DHT22;9572;52.378;13.404;2023-07-31T04:57:54;16.40;99.90
18880;DHT22;9572;52.378;13.404;2023-07-31T05:00:21;16.30;99.90
18880;DHT22;9572;52.378;13.404;2023-07-31T05:02:48;16.30;99.90
18880;DHT22;9572;52.378;13.404;2023-07-31T05:05:15;16.30;99.90
18880;DHT22;9572;52.378;13.404;2023-07-31T05:07:44;16.40;99.90
18880;DHT22;9572;52.378;13.404;2023-07-31T05:10:10;16.40;99.90
18880;DHT22;9572;52.378;13.404;2023-07-31T05:12:37;16.40;99.90
18880;DHT22;9572;52.378;13.404;2023-07-31T05:15:05;16.40;99.90
18880;DHT22;9572;52.378;13.404;2023-07-31T05:17:32;16.40;99.90
18880;DHT22;9572;52.378;13.404;2023-07-31T05:19:59;16.50;99.90
18880;DHT22;9572;52.378;13.404;2023-07-31T05:22:26;16.50;99.90
18880;DHT22;9572;52.378;13.404;2023-07-31T05:24:54;16.50;99.90
18880;DHT22;9572;52.378;13.404;2023-07-31T05:27:21;16.50;99.90
18880;DHT22;9572;52.378;13.404;2023-07-31T05:29:48;16.50;99.90
18880;DHT22;9572;52.378;13.404;2023-07-31T05:32:15;16.50;99.90
18880;DHT22;9572;52.378;13.404;2023-07-31T05:34:42;16.60;99.90
18880;DHT22;9572;52.378;13.404;2023-07-31T05:37:10;16.50;99.90
18880;DHT22;9572;52.378;13.404;2023-07-31T05:39:37;16.50;99.90
18880;DHT22;9572;52.378;13.404;2023-07-31T05:42:05;16.50;99.90
18880;DHT22;9572;52.378;13.404;2023-07-31T05:44:32;16.50;99.90
18880;DHT22;9572;52.378;13.404;2023-07-31T05:46:59;16.60;99.90
18880;DHT22;9572;52.378;13.404;2023-07-31T05:49:26;16.60;99.90
18880;DHT22;9572;52.378;13.404;2023-07-31T05:51:53;16.60;99.90
18880;DHT22;9572;52.378;13.404;2023-07-31T05:54:20;16.60;99.90
18880;DHT22;9572;52.378;13.404;2023-07-31T05:56:47;16.70;99.90
18880;DHT22;9572;52.378;13.404;2023-07-31T05:59:16;16.80;99.90
18880;DHT22;9572;52.378;13.404;2023-07-31T06:01:43;16.80;99.90
18880;DHT22;9572;52.378;13.404;2023-07-31T06:04:10;16.70;99.90
18880;DHT22;9572;52.378;13.404;2023-07-31T06:06:37;16.80;99.90
18880;DHT22;9572;52.378;13.404;2023-07-31T06:09:04;16.90;99.90
18880;DHT22;9572;52.378;13.404;2023-07-31T06:11:31;16.80;99.90
18880;DHT22;9572;52.378;13.404;2023-07-31T06:13:58;16.90;99.90
18880;DHT22;9572;52.378;13.404;2023-07-31T06:16:26;16.90;99.90
18880;DHT22;9572;52.378;13.404;2023-07-31T06:18:53;17.00;99.90
18880;DHT22;9572;52.378;13.404;2023-07-31T06:21:20;17.00;99.90
18880;DHT22;9572;52.378;13.404;2023-07-31T06:23:47;17.00;99.90
18880;DHT22;9572;52.378;13.404;2023-07-31T06:26:14;16.90;99.90
18880;DHT22;9572;52.378;13.404;2023-07-31T06:28:41;16.90;99.90
18880;DHT22;9572;52.378;13.404;2023-07-31T06:31:08;16.80;99.90
18880;DHT22;9572;52.378;13.404;2023-07-31T06:33:36;17.00;99.90
18880;DHT22;9572;52.378;13.404;2023-07-31T06:36:03;17.00;99.90
18880;DHT22;9572;52.378;13.404;2023-07-31T06:38:30;17.00;99.90
18880;DHT22;9572;52.378;13.404;2023-07-31T06:40:57;17.00;99.90
18880;DHT22;9572;52.378;13.404;2023-07-31T06:43:24;17.00;99.90
18880;DHT22;9572;52.378;13.404;2023-07-31T06:45:51;17.00;99.90
18880;DHT22;9572;52.378;13.404;2023-07-31T06:48:18;17.10;99.90
18880;DHT22;9572;52.378;13.404;2023-07-31T06:50:46;17.20;99.90
18880;DHT22;9572;52.378;13.404;2023-07-31T06:53:13;17.20;99.90
18880;DHT22;9572;52.378;13.404;2023-07-31T06:55:40;17.20;99.90
18880;DHT22;9572;52.378;13.404;2023-07-31T06:58:07;17.20;99.90
18880;DHT22;9572;52.378;13.404;2023-07-31T07:00:34;17.10;99.90
18880;DHT22;9572;52.378;13.404;2023-07-31T07:03:01;17.00;99.90
18880;DHT22;9572;52.378;13.404;2023-07-31T07:05:28;17.10;99.90
18880;DHT22;9572;52.378;13.404;2023-07-31T07:07:56;17.00;99.90
18880;DHT22;9572;52.378;13.404;2023-07-31T07:10:23;16.90;99.90
18880;DHT22;9572;52.378;13.404;2023-07-31T07:12:50;16.90;99.90
18880;DHT22;9572;52.378;13.404;2023-07-31T07:15:17;16.90;99.90
18880;DHT22;9572;52.378;13.404;2023-07-31T07:17:44;16.90;99.90
18880;DHT22;9572;52.378;13.404;2023-07-31T07:20:12;17.00;99.90
18880;DHT22;9572;52.378;13.404;2023-07-31T07:22:39;16.90;99.90
18880;DHT22;9572;52.378;13.404;2023-07-31T07:25:10;16.90;99.90
18880;DHT22;9572;52.378;13.404;2023-07-31T07:27:37;17.00;99.90
18880;DHT22;9572;52.378;13.404;2023-07-31T07:30:04;17.10;99.90
18880;DHT22;9572;52.378;13.404;2023-07-31T07:32:31;17.10;99.90
18880;DHT22;9572;52.378;13.404;2023-07-31T07:34:58;17.10;99.90
18880;DHT22;9572;52.378;13.404;2023-07-31T07:37:26;17.10;99.90
18880;DHT22;9572;52.378;13.404;2023-07-31T07:39:53;17.20;99.90
18880;DHT22;9572;52.378;13.404;2023-07-31T07:42:21;17.20;99.90
18880;DHT22;9572;52.378;13.404;2023-07-31T07:44:48;17.20;99.90
18880;DHT22;9572;52.378;13.404;2023-07-31T07:47:15;17.30;99.90
18880;DHT22;9572;52.378;13.404;2023-07-31T07:49:42;17.30;99.90
18880;DHT22;9572;52.378;13.404;2023-07-31T07:52:09;17.20;99.90
18880;DHT22;9572;52.378;13.404;2023-07-31T07:54:36;17.20;99.90
18880;DHT22;9572;52.378;13.404;2023-07-31T07:57:03;17.20;99.90
18880;DHT22;9572;52.378;13.404;2023-07-31T07:59:32;17.30;99.90
18880;DHT22;9572;52.378;13.404;2023-07-31T08:01:58;17.40;99.90
18880;DHT22;9572;52.378;13.404;2023-07-31T08:04:26;17.40;99.90
18880;DHT22;9572;52.378;13.404;2023-07-31T08:06:53;17.40;99.90
18880;DHT22;9572;52.378;13.404;2023-07-31T08:09:19;17.40;99.90
18880;DHT22;9572;52.378;13.404;2023-07-31T08:11:46;17.40;99.90
18880;DHT22;9572;52.378;13.404;2023-07-31T08:14:14;17.40;99.90
18880;DHT22;9572;52.378;13.404;2023-07-31T08:16:42;17.50;99.90
18880;DHT22;9572;52.378;13.404;2023-07-31T08:19:09;17.40;99.90
18880;DHT22;9572;52.378;13.404;2023-07-31T08:21:36;17.50;99.90
18880;DHT22;9572;52.378;13.404;2023-07-31T08:24:03;17.50;99.90
18880;DHT22;9572;52.378;13.404;2023-07-31T08:26:30;17.70;99.90
18880;DHT22;9572;52.378;13.404;2023-07-31T08:28:58;17.70;99.90
18880;DHT22;9572;52.378;13.404;2023-07-31T08:31:25;17.80;99.90
18880;DHT22;9572;52.378;13.404;2023-07-31T08:33:53;17.90;99.90
18880;DHT22;9572;52.378;13.404;2023-07-31T08:36:20;18.00;99.90
18880;DHT22;9572;52.378;13.404;2023-07-31T08:38:47;18.10;99.90
18880;DHT22;9572;52.378;13.404;2023-07-31T08:41:15;18.10;99.90
18880;DHT22;9572;52.378;13.404;2023-07-31T08:43:44;18.00;99.90
18880;DHT22;9572;52.378;13.404;2023-07-31T08:46:12;18.00;99.90
18880;DHT22;9572;52.378;13.404;2023-07-31T08:48:41;18.00;99.90
18880;DHT22;9572;52.378;13.404;2023-07-31T08:51:11;18.00;99.90
18880;DHT22;9572;52.378;13.404;2023-07-31T08:53:38;18.10;99.90
18880;DHT22;9572;52.378;13.404;2023-07-31T08:56:06;18.10;99.90
18880;DHT22;9572;52.378;13.404;2023-07-31T08:58:35;18.10;99.90
18880;DHT22;9572;52.378;13.404;2023-07-31T09:01:04;18.10;99.90
18880;DHT22;9572;52.378;13.404;2023-07-31T09:03:34;18.10;99.90
18880;DHT22;9572;52.378;13.404;2023-07-31T09:06:03;18.10;99.90
18880;DHT22;9572;52.378;13.404;2023-07-31T09:08:33;18.10;99.90
18880;DHT22;9572;52.378;13.404;2023-07-31T09:11:01;18.20;99.90
18880;DHT22;9572;52.378;13.404;2023-07-31T09:13:29;18.40;99.90
18880;DHT22;9572;52.378;13.404;2023-07-31T09:15:56;18.40;99.90
18880;DHT22;9572;52.378;13.404;2023-07-31T09:18:24;18.40;99.90
18880;DHT22;9572;52.378;13.404;2023-07-31T09:21:01;18.60;99.90
18880;DHT22;9572;52.378;13.404;2023-07-31T09:23:41;18.60;99.90
18880;DHT22;9572;52.378;13.404;2023-07-31T09:26:08;18.50;99.90
18880;DHT22;9572;52.378;13.404;2023-07-31T09:28:36;18.50;99.90
18880;DHT22;9572;52.378;13.404;2023-07-31T09:31:03;18.30;99.90
18880;DHT22;9572;52.378;13.404;2023-07-31T09:33:30;18.20;99.90
18880;DHT22;9572;52.378;13.404;2023-07-31T09:35:59;18.30;99.90
18880;DHT22;9572;52.378;13.404;2023-07-31T09:38:26;18.30;99.90
18880;DHT22;9572;52.378;13.404;2023-07-31T09:40:55;18.40;99.90
18880;DHT22;9572;52.378;13.404;2023-07-31T09:43:25;18.40;99.90
18880;DHT22;9572;52.378;13.404;2023-07-31T09:45:55;18.50;99.90
18880;DHT22;9572;52.378;13.404;2023-07-31T09:48:24;18.50;99.90
18880;DHT22;9572;52.378;13.404;2023-07-31T09:50:53;18.50;99.90
18880;DHT22;9572;52.378;13.404;2023-07-31T09:53:28;18.60;99.90
18880;DHT22;9572;52.378;13.404;2023-07-31T09:55:58;18.70;99.90
18880;DHT22;9572;52.378;13.404;2023-07-31T09:58:27;18.80;99.90
18880;DHT22;9572;52.378;13.404;2023-07-31T10:00:55;18.80;99.90
18880;DHT22;9572;52.378;13.404;2023-07-31T10:03:24;18.70;99.90
18880;DHT22;9572;52.378;13.404;2023-07-31T10:05:53;18.70;99.90
18880;DHT22;9572;52.378;13.404;2023-07-31T10:08:29;18.70;99.90
18880;DHT22;9572;52.378;13.404;2023-07-31T10:10:59;18.70;99.90
18880;DHT22;9572;52.378;13.404;2023-07-31T10:13:28;18.80;99.90
18880;DHT22;9572;52.378;13.404;2023-07-31T10:15:59;18.80;99.90
18880;DHT22;9572;52.378;13.404;2023-07-31T10:18:26;18.90;99.90
18880;DHT22;9572;52.378;13.404;2023-07-31T10:20:54;18.90;99.90
18880;DHT22;9572;52.378;13.404;2023-07-31T10:23:22;19.00;99.90
18880;DHT22;9572;52.378;13.404;2023-07-31T10:25:51;18.90;99.90
18880;DHT22;9572;52.378;13.404;2023-07-31T10:28:21;18.80;99.90
18880;DHT22;9572;52.378;13.404;2023-07-31T10:30:50;18.90;99.90
18880;DHT22;9572;52.378;13.404;2023-07-31T10:33:19;18.90;99.90
18880;DHT22;9572;52.378;13.404;2023-07-31T10:35:47;19.00;99.90
18880;DHT22;9572;52.378;13.404;2023-07-31T10:38:14;19.20;99.90
18880;DHT22;9572;52.378;13.404;2023-07-31T10:40:42;19.40;99.90
18880;DHT22;9572;52.378;13.404;2023-07-31T10:43:25;19.60;99.90
18880;DHT22;9572;52.378;13.404;2023-07-31T10:45:53;20.00;99.90
18880;DHT22;9572;52.378;13.404;2023-07-31T10:48:21;20.40;99.90
18880;DHT22;9572;52.378;13.404;2023-07-31T10:50:49;20.70;99.90
18880;DHT22;9572;52.378;13.404;2023-07-31T10:53:23;20.90;99.90
18880;DHT22;9572;52.378;13.404;2023-07-31T10:55:50;21.30;99.90
18880;DHT22;9572;52.378;13.404;2023-07-31T10:58:19;21.80;99.90
18880;DHT22;9572;52.378;13.404;2023-07-31T11:00:48;22.20;99.90
18880;DHT22;9572;52.378;13.404;2023-07-31T11:03:16;22.70;99.90
18880;DHT22;9572;52.378;13.404;2023-07-31T11:05:51;22.90;99.90
18880;DHT22;9572;52.378;13.404;2023-07-31T11:08:22;22.80;99.90
18880;DHT22;9572;52.378;13.404;2023-07-31T11:10:51;22.70;99.90
18880;DHT22;9572;52.378;13.404;2023-07-31T11:13:19;22.50;99.90
18880;DHT22;9572;52.378;13.404;2023-07-31T11:15:47;22.40;99.90
18880;DHT22;9572;52.378;13.404;2023-07-31T11:18:14;22.40;99.90
18880;DHT22;9572;52.378;13.404;2023-07-31T11:20:42;22.40;99.90
18880;DHT22;9572;52.378;13.404;2023-07-31T11:23:10;22.30;99.90
18880;DHT22;9572;52.378;13.404;2023-07-31T11:25:38;22.10;99.90
18880;DHT22;9572;52.378;13.404;2023-07-31T11:28:15;22.00;99.90
18880;DHT22;9572;52.378;13.404;2023-07-31T11:30:45;22.00;99.90
18880;DHT22;9572;52.378;13.404;2023-07-31T11:33:18;22.00;99.90
18880;DHT22;9572;52.378;13.404;2023-07-31T11:35:46;21.90;99.90
18880;DHT22;9572;52.378;13.404;2023-07-31T11:38:21;21.90;99.90
18880;DHT22;9572;52.378;13.404;2023-07-31T11:40:52;21.90;99.90
18880;DHT22;9572;52.378;13.404;2023-07-31T11:43:24;21.80;99.90
18880;DHT22;9572;52.378;13.404;2023-07-31T11:45:53;21.80;99.90
18880;DHT22;9572;52.378;13.404;2023-07-31T11:48:38;21.70;99.90
18880;DHT22;9572;52.378;13.404;2023-07-31T11:51:06;21.60;99.90
18880;DHT22;9572;52.378;13.404;2023-07-31T11:53:36;21.50;99.90
18880;DHT22;9572;52.378;13.404;2023-07-31T11:56:07;21.40;99.90
18880;DHT22;9572;52.378;13.404;2023-07-31T11:58:35;21.30;99.90
18880;DHT22;9572;52.378;13.404;2023-07-31T12:01:03;21.20;99.90
18880;DHT22;9572;52.378;13.404;2023-07-31T12:03:32;21.20;99.90
18880;DHT22;9572;52.378;13.404;2023-07-31T12:06:07;21.20;99.90
18880;DHT22;9572;52.378;13.404;2023-07-31T12:08:34;21.20;99.90
18880;DHT22;9572;52.378;13.404;2023-07-31T12:11:04;21.30;99.90
18880;DHT22;9572;52.378;13.404;2023-07-31T12:13:33;21.30;99.90
18880;DHT22;9572;52.378;13.404;2023-07-31T12:16:03;21.40;99.90
18880;DHT22;9572;52.378;13.404;2023-07-31T12:18:35;21.50;99.90
18880;DHT22;9572;52.378;13.404;2023-07-31T12:21:07;21.50;99.90
18880;DHT22;9572;52.378;13.404;2023-07-31T12:23:36;21.60;99.90
18880;DHT22;9572;52.378;13.404;2023-07-31T12:26:06;21.50;99.90
18880;DHT22;9572;52.378;13.404;2023-07-31T12:28:36;21.50;99.90
18880;DHT22;9572;52.378;13.404;2023-07-31T12:31:04;21.40;99.90
18880;DHT22;9572;52.378;13.404;2023-07-31T12:33:33;21.30;99.90
18880;DHT22;9572;52.378;13.404;2023-07-31T12:36:01;21.20;99.90
18880;DHT22;9572;52.378;13.404;2023-07-31T12:38:30;21.30;99.90
18880;DHT22;9572;52.378;13.404;2023-07-31T12:40:57;21.20;99.90
18880;DHT22;9572;52.378;13.404;2023-07-31T12:43:24;21.40;99.90
18880;DHT22;9572;52.378;13.404;2023-07-31T12:45:53;21.50;99.90
18880;DHT22;9572;52.378;13.404;2023-07-31T12:48:20;21.50;99.90
18880;DHT22;9572;52.378;13.404;2023-07-31T12:50:47;21.60;99.90
18880;DHT22;9572;52.378;13.404;2023-07-31T12:53:15;21.70;99.90
18880;DHT22;9572;52.378;13.404;2023-07-31T12:55:43;21.90;99.90
18880;DHT22;9572;52.378;13.404;2023-07-31T12:58:10;22.00;99.90
18880;DHT22;9572;52.378;13.404;2023-07-31T13:00:37;22.10;99.90
18880;DHT22;9572;52.378;13.404;2023-07-31T13:03:04;22.00;99.90
18880;DHT22;9572;52.378;13.404;2023-07-31T13:05:31;21.90;99.90
18880;DHT22;9572;52.378;13.404;2023-07-31T13:07:58;21.80;99.90
18880;DHT22;9572;52.378;13.404;2023-07-31T13:10:26;21.70;99.90
18880;DHT22;9572;52.378;13.404;2023-07-31T13:12:55;21.70;99.90
18880;DHT22;9572;52.378;13.404;2023-07-31T13:15:22;21.80;99.90
18880;DHT22;9572;52.378;13.404;2023-07-31T13:17:49;21.90;99.90
18880;DHT22;9572;52.378;13.404;2023-07-31T13:20:16;22.10;99.90
18880;DHT22;9572;52.378;13.404;2023-07-31T13:22:44;22.10;99.90
18880;DHT22;9572;52.378;13.404;2023-07-31T13:25:10;22.20;99.90
18880;DHT22;9572;52.378;13.404;2023-07-31T13:27:37;22.20;99.90
18880;DHT22;9572;52.378;13.404;2023-07-31T13:30:07;22.20;99.90
18880;DHT22;9572;52.378;13.404;2023-07-31T13:32:34;22.10;99.90
18880;DHT22;9572;52.378;13.404;2023-07-31T13:35:05;22.10;99.90
18880;DHT22;9572;52.378;13.404;2023-07-31T13:37:32;22.10;99.90
18880;DHT22;9572;52.378;13.404;2023-07-31T13:39:58;22.30;99.90
18880;DHT22;9572;52.378;13.404;2023-07-31T13:42:26;22.40;99.90
18880;DHT22;9572;52.378;13.404;2023-07-31T13:44:54;22.40;99.90
18880;DHT22;9572;52.378;13.404;2023-07-31T13:47:23;22.50;99.90
18880;DHT22;9572;52.378;13.404;2023-07-31T13:49:50;22.50;99.90
18880;DHT22;9572;52.378;13.404;2023-07-31T13:52:17;22.60;99.90
18880;DHT22;9572;52.378;13.404;2023-07-31T13:54:44;22.60;99.90
18880;DHT22;9572;52.378;13.404;2023-07-31T13:57:11;22.70;99.90
18880;DHT22;9572;52.378;13.404;2023-07-31T13:59:38;22.70;99.90
18880;DHT22;9572;52.378;13.404;2023-07-31T14:02:05;22.70;99.90
18880;DHT22;9572;52.378;13.404;2023-07-31T14:04:33;22.80;99.90
18880;DHT22;9572;52.378;13.404;2023-07-31T14:07:00;22.80;99.90
18880;DHT22;9572;52.378;13.404;2023-07-31T14:09:27;22.80;99.90
18880;DHT22;9572;52.378;13.404;2023-07-31T14:11:54;22.80;99.90
18880;DHT22;9572;52.378;13.404;2023-07-31T14:14:21;22.70;99.90
18880;DHT22;9572;52.378;13.404;2023-07-31T14:16:48;22.70;99.90
18880;DHT22;9572;52.378;13.404;2023-07-31T14:19:15;22.60;99.90
18880;DHT22;9572;52.378;13.404;2023-07-31T14:21:43;22.60;99.90
18880;DHT22;9572;52.378;13.404;2023-07-31T14:24:10;22.50;99.90
18880;DHT22;9572;52.378;13.404;2023-07-31T14:26:37;22.50;99.90
18880;DHT22;9572;52.378;13.404;2023-07-31T14:29:04;22.50;99.90
18880;DHT22;9572;52.378;13.404;2023-07-31T14:31:31;22.50;99.90
18880;DHT22;9572;52.378;13.404;2023-07-31T14:33:58;22.50;99.90
18880;DHT22;9572;52.378;13.404;2023-07-31T14:36:25;22.50;99.90
18880;DHT22;9572;52.378;13.404;2023-07-31T14:38:53;22.50;99.90
18880;DHT22;9572;52.378;13.404;2023-07-31T14:41:20;22.60;99.90
18880;DHT22;9572;52.378;13.404;2023-07-31T14:43:47;22.60;99.90
18880;DHT22;9572;52.378;13.404;2023-07-31T14:46:14;22.60;99.90
18880;DHT22;9572;52.378;13.404;2023-07-31T14:48:41;22.60;99.90
18880;DHT22;9572;52.378;13.404;2023-07-31T14:51:08;22.60;99.90
18880;DHT22;9572;52.378;13.404;2023-07-31T14:53:35;22.60;99.90
18880;DHT22;9572;52.378;13.404;2023-07-31T14:56:04;22.60;99.90
18880;DHT22;9572;52.378;13.404;2023-07-31T14:58:31;22.70;99.90
18880;DHT22;9572;52.378;13.404;2023-07-31T15:00:58;22.60;99.90
18880;DHT22;9572;52.378;13.404;2023-07-31T15:03:25;22.60;99.90
18880;DHT22;9572;52.378;13.404;2023-07-31T15:05:52;22.50;99.90
18880;DHT22;9572;52.378;13.404;2023-07-31T15:08:19;22.30;99.90
18880;DHT22;9572;52.378;13.404;2023-07-31T15:10:46;22.20;99.90
18880;DHT22;9572;52.378;13.404;2023-07-31T15:13:14;22.00;99.90
18880;DHT22;9572;52.378;13.404;2023-07-31T15:15:41;22.00;99.90
18880;DHT22;9572;52.378;13.404;2023-07-31T15:18:08;21.90;99.90
18880;DHT22;9572;52.378;13.404;2023-07-31T15:20:35;21.80;99.90
18880;DHT22;9572;52.378;13.404;2023-07-31T15:23:02;21.80;99.90
18880;DHT22;9572;52.378;13.404;2023-07-31T15:25:29;21.80;99.90
18880;DHT22;9572;52.378;13.404;2023-07-31T15:27:56;21.80;99.90
18880;DHT22;9572;52.378;13.404;2023-07-31T15:30:25;21.80;99.90
18880;DHT22;9572;52.378;13.404;2023-07-31T15:32:52;21.80;99.90
18880;DHT22;9572;52.378;13.404;2023-07-31T15:35:19;21.80;99.90
18880;DHT22;9572;52.378;13.404;2023-07-31T15:37:46;21.70;99.90